createdAt,value
2022-09-15T00:01:22.044Z,14.50
2022-09-15T00:03:50.171Z,14.50
2022-09-15T00:06:18.518Z,14.40
2022-09-15T00:08:47.025Z,14.50
2022-09-15T00:11:24.214Z,14.40
2022-09-15T00:13:53.165Z,14.40
2022-09-15T00:16:26.347Z,14.40
2022-09-15T00:18:53.941Z,14.50
2022-09-15T00:21:36.261Z,14.50
2022-09-15T00:24:08.107Z,14.50
2022-09-15T00:26:36.114Z,14.50
2022-09-15T00:29:05.396Z,14.50
2022-09-15T00:31:33.799Z,14.50
2022-09-15T00:34:05.174Z,14.50
2022-09-15T00:36:36.146Z,14.50
2022-09-15T00:39:06.856Z,14.50
2022-09-15T00:41:39.226Z,14.50
2022-09-15T00:44:18.832Z,14.50
2022-09-15T00:47:15.228Z,14.60
2022-09-15T00:49:49.520Z,14.60
2022-09-15T00:53:02.426Z,14.60
2022-09-15T00:55:43.934Z,14.60
2022-09-15T00:58:34.965Z,14.60
2022-09-15T01:01:06.460Z,14.60
2022-09-15T01:03:35.698Z,14.60
2022-09-15T01:06:15.827Z,14.60
2022-09-15T01:08:57.347Z,14.60
2022-09-15T01:11:30.660Z,14.60
2022-09-15T01:13:59.525Z,14.60
2022-09-15T01:16:39.455Z,14.60
2022-09-15T01:19:33.737Z,14.60
2022-09-15T01:22:13.606Z,14.70
2022-09-15T01:24:44.285Z,14.70
2022-09-15T01:27:41.599Z,14.70
2022-09-15T01:30:17.339Z,14.70
2022-09-15T01:33:08.988Z,14.70
2022-09-15T01:36:14.286Z,14.60
2022-09-15T01:39:09.390Z,14.70
2022-09-15T01:42:03.738Z,14.60
2022-09-15T01:44:50.215Z,14.50
2022-09-15T01:47:20.920Z,14.60
2022-09-15T01:50:19.339Z,14.60
2022-09-15T01:52:50.079Z,14.50
2022-09-15T01:55:23.295Z,14.50
2022-09-15T01:57:51.759Z,14.50
2022-09-15T02:00:21.802Z,14.50
2022-09-15T02:03:05.267Z,14.50
2022-09-15T02:05:45.379Z,14.40
2022-09-15T02:08:25.849Z,14.40
2022-09-15T02:11:19.959Z,14.40
2022-09-15T02:14:10.623Z,14.40
2022-09-15T02:16:43.590Z,14.40
2022-09-15T02:19:36.596Z,14.40
2022-09-15T02:22:17.815Z,14.40
2022-09-15T02:25:03.544Z,14.40
2022-09-15T02:27:37.916Z,14.40
2022-09-15T02:30:14.896Z,14.30
2022-09-15T02:32:56.367Z,14.30
2022-09-15T02:35:30.183Z,14.30
2022-09-15T02:37:58.720Z,14.30
2022-09-15T02:40:31.153Z,14.30
2022-09-15T02:43:04.161Z,14.30
2022-09-15T02:45:32.657Z,14.30
2022-09-15T02:48:00.836Z,14.40
2022-09-15T02:50:28.528Z,14.40
2022-09-15T02:52:57.134Z,14.40
2022-09-15T02:55:29.334Z,14.40
2022-09-15T02:57:58.248Z,14.50
2022-09-15T03:00:26.970Z,14.50
2022-09-15T03:02:59.144Z,14.50
2022-09-15T03:05:30.968Z,14.60
2022-09-15T03:07:59.204Z,14.60
2022-09-15T03:10:35.842Z,14.50
2022-09-15T03:13:03.805Z,14.60
2022-09-15T03:15:34.213Z,14.50
2022-09-15T03:18:02.477Z,14.50
2022-09-15T03:20:33.806Z,14.60
2022-09-15T03:23:16.682Z,14.50
2022-09-15T03:25:46.570Z,14.50
2022-09-15T03:28:14.908Z,14.50
2022-09-15T03:30:42.938Z,14.50
2022-09-15T03:33:12.736Z,14.40
2022-09-15T03:35:45.434Z,14.50
2022-09-15T03:38:13.566Z,14.50
2022-09-15T03:40:43.395Z,14.50
2022-09-15T03:43:14.339Z,14.50
2022-09-15T03:45:45.623Z,14.40
2022-09-15T03:48:13.505Z,14.50
2022-09-15T03:50:41.523Z,14.40
2022-09-15T03:53:12.721Z,14.30
2022-09-15T03:55:46.774Z,14.30
2022-09-15T03:58:15.025Z,14.40
2022-09-15T04:00:47.265Z,14.30
2022-09-15T04:03:15.383Z,14.40
2022-09-15T04:05:45.483Z,14.30
2022-09-15T04:08:16.131Z,14.40
2022-09-15T04:10:49.006Z,14.30
2022-09-15T04:13:20.861Z,14.30
2022-09-15T04:16:11.155Z,14.30
2022-09-15T04:18:39.085Z,14.40
2022-09-15T04:21:13.870Z,14.50
2022-09-15T04:23:43.393Z,14.40
2022-09-15T04:26:26.409Z,14.40
2022-09-15T04:28:54.748Z,14.50
2022-09-15T04:31:34.137Z,14.40
2022-09-15T04:34:09.201Z,14.40
2022-09-15T04:36:40.186Z,14.50
2022-09-15T04:39:10.244Z,14.40
2022-09-15T04:41:37.733Z,14.50
2022-09-15T04:44:05.621Z,14.50
2022-09-15T04:46:34.098Z,14.50
2022-09-15T04:49:05.400Z,14.50
2022-09-15T04:51:37.468Z,14.60
2022-09-15T04:54:06.956Z,14.50
2022-09-15T04:56:35.177Z,14.60
2022-09-15T04:59:08.352Z,14.60
2022-09-15T05:01:36.370Z,14.60
2022-09-15T05:04:05.378Z,14.60
2022-09-15T05:06:38.140Z,14.60
2022-09-15T05:09:10.407Z,14.40
2022-09-15T05:11:44.168Z,14.50
2022-09-15T05:14:12.185Z,14.50
2022-09-15T05:16:45.500Z,14.50
2022-09-15T05:19:16.545Z,14.50
2022-09-15T05:21:59.534Z,14.50
2022-09-15T05:25:03.140Z,14.50
2022-09-15T05:27:37.374Z,14.50
2022-09-15T05:30:34.983Z,14.60
2022-09-15T05:32:54.942Z,14.60
2022-09-15T05:35:28.172Z,14.60
2022-09-15T05:38:23.579Z,14.60
2022-09-15T05:41:13.995Z,14.70
2022-09-15T05:43:41.723Z,14.70
2022-09-15T05:46:29.547Z,14.80
2022-09-15T05:49:00.930Z,14.90
2022-09-15T05:51:42.762Z,14.90
2022-09-15T05:54:11.208Z,14.90
2022-09-15T05:56:50.478Z,15.00
2022-09-15T05:59:25.684Z,15.10
2022-09-15T06:02:00.874Z,15.10
2022-09-15T06:04:36.418Z,15.30
2022-09-15T06:07:29.674Z,15.30
2022-09-15T06:10:17.370Z,15.50
2022-09-15T06:12:48.069Z,15.80
2022-09-15T06:15:18.099Z,16.10
2022-09-15T06:17:47.896Z,16.70
2022-09-15T06:20:27.477Z,17.40
2022-09-15T06:22:58.385Z,17.90
2022-09-15T06:25:28.160Z,18.50
2022-09-15T06:28:10.078Z,18.90
2022-09-15T06:30:48.932Z,19.60
2022-09-15T06:33:24.029Z,20.70
2022-09-15T06:35:57.097Z,22.00
2022-09-15T06:38:24.885Z,23.20
2022-09-15T06:40:59.651Z,23.50
2022-09-15T06:43:39.204Z,23.40
2022-09-15T06:46:13.543Z,23.00
2022-09-15T06:48:43.479Z,22.50
2022-09-15T06:51:21.354Z,22.10
2022-09-15T06:54:04.665Z,21.50
2022-09-15T06:56:44.269Z,20.80
2022-09-15T06:59:19.142Z,20.20
2022-09-15T07:02:01.444Z,19.90
2022-09-15T07:04:31.910Z,19.60
2022-09-15T07:07:09.378Z,19.40
2022-09-15T07:09:51.041Z,19.30
2022-09-15T07:12:39.489Z,19.10
2022-09-15T07:15:30.208Z,19.10
2022-09-15T07:18:02.310Z,19.20
2022-09-15T07:20:45.437Z,19.20
2022-09-15T07:23:19.970Z,19.60
2022-09-15T07:25:59.100Z,20.10
2022-09-15T07:28:37.345Z,20.70
2022-09-15T07:31:21.490Z,21.20
2022-09-15T07:34:19.195Z,21.20
2022-09-15T07:36:50.005Z,21.20
2022-09-15T07:39:17.217Z,21.00
2022-09-15T07:41:47.431Z,21.00
2022-09-15T07:44:29.130Z,21.10
2022-09-15T07:46:59.296Z,21.10
2022-09-15T07:49:37.850Z,21.10
2022-09-15T07:52:22.484Z,21.20
2022-09-15T07:54:53.598Z,21.10
2022-09-15T07:57:24.559Z,20.90
2022-09-15T07:59:56.877Z,20.70
2022-09-15T08:06:38.984Z,20.70
2022-09-15T08:10:51.100Z,20.50
2022-09-15T08:13:29.102Z,20.20
2022-09-15T08:15:59.820Z,20.00
2022-09-15T08:19:15.309Z,20.00
2022-09-15T08:21:56.279Z,19.70
2022-09-15T08:24:29.583Z,19.60
2022-09-15T08:27:04.453Z,19.30
2022-09-15T08:29:33.390Z,19.20
2022-09-15T08:32:10.298Z,19.00
2022-09-15T08:34:41.265Z,18.80
2022-09-15T08:37:11.958Z,18.70
2022-09-15T08:39:59.445Z,18.50
2022-09-15T08:42:33.567Z,18.30
2022-09-15T08:45:14.210Z,18.10
2022-09-15T08:47:58.400Z,17.90
2022-09-15T08:50:50.215Z,17.90
2022-09-15T08:53:29.879Z,17.80
2022-09-15T08:58:59.311Z,17.80
2022-09-15T09:02:15.652Z,17.90
2022-09-15T09:05:25.260Z,18.00
2022-09-15T09:08:03.251Z,18.10
2022-09-15T09:10:59.565Z,18.30
2022-09-15T09:13:47.790Z,18.20
2022-09-15T09:16:45.594Z,18.30
2022-09-15T09:19:18.657Z,18.20
2022-09-15T09:22:02.311Z,18.00
2022-09-15T09:24:42.540Z,18.10
2022-09-15T09:27:26.770Z,18.10
2022-09-15T09:30:44.023Z,18.10
2022-09-15T09:33:49.973Z,18.00
2022-09-15T09:36:49.514Z,18.10
2022-09-15T09:39:20.062Z,17.90
2022-09-15T09:41:56.657Z,17.90
2022-09-15T09:44:32.619Z,17.90
2022-09-15T09:47:05.582Z,17.80
2022-09-15T09:49:50.801Z,17.70
2022-09-15T09:56:43.601Z,17.40
2022-09-15T09:59:42.151Z,17.50
2022-09-15T10:02:36.319Z,17.40
2022-09-15T10:05:14.258Z,17.50
2022-09-15T10:07:47.383Z,17.60
2022-09-15T10:10:25.767Z,17.60
2022-09-15T10:15:49.915Z,17.30
2022-09-15T10:21:25.248Z,17.20
2022-09-15T10:23:53.372Z,17.00
2022-09-15T10:26:45.231Z,17.20
2022-09-15T10:29:20.966Z,17.10
2022-09-15T10:31:48.858Z,17.10
2022-09-15T10:34:44.213Z,17.00
2022-09-15T10:37:56.271Z,17.10
2022-09-15T10:40:52.258Z,17.00
2022-09-15T10:44:07.755Z,16.90
2022-09-15T10:47:13.376Z,16.90
2022-09-15T10:50:19.237Z,16.80
2022-09-15T10:53:44.165Z,16.90
2022-09-15T10:56:28.034Z,16.90
2022-09-15T10:59:29.715Z,16.90
2022-09-15T11:02:42.944Z,16.80
2022-09-15T11:05:37.937Z,16.80
2022-09-15T11:08:38.838Z,16.80
2022-09-15T11:11:41.608Z,16.80
2022-09-15T11:17:26.167Z,17.00
2022-09-15T11:21:00.951Z,17.00
2022-09-15T11:23:54.809Z,17.10
2022-09-15T11:26:46.737Z,17.10
2022-09-15T11:29:34.855Z,17.10
2022-09-15T11:32:26.191Z,17.20
2022-09-15T11:35:50.667Z,17.30
2022-09-15T11:38:52.482Z,17.40
2022-09-15T11:41:43.315Z,17.50
2022-09-15T11:44:33.904Z,17.60
2022-09-15T11:47:31.876Z,17.90
2022-09-15T11:50:11.737Z,18.00
2022-09-15T11:53:13.072Z,18.30
2022-09-15T11:55:59.020Z,18.40
2022-09-15T11:59:06.702Z,18.60
2022-09-15T12:02:08.405Z,18.80
2022-09-15T12:05:00.986Z,18.90
2022-09-15T12:07:34.023Z,18.90
2022-09-15T12:10:15.811Z,18.90
2022-09-15T12:12:50.480Z,18.80
2022-09-15T12:15:33.314Z,18.80
2022-09-15T12:18:41.000Z,18.70
2022-09-15T12:22:11.702Z,18.70
2022-09-15T12:24:50.917Z,18.80
2022-09-15T12:27:22.977Z,19.20
2022-09-15T12:29:59.505Z,19.20
2022-09-15T12:32:33.727Z,19.10
2022-09-15T12:35:06.446Z,19.10
2022-09-15T12:38:01.707Z,19.00
2022-09-15T12:40:42.402Z,19.00
2022-09-15T12:43:21.008Z,19.10
2022-09-15T12:46:18.809Z,19.00
2022-09-15T12:48:49.522Z,19.00
2022-09-15T12:51:29.446Z,18.90
2022-09-15T12:54:09.598Z,18.90
2022-09-15T12:56:37.282Z,18.80
2022-09-15T12:59:14.082Z,18.80
2022-09-15T13:01:50.125Z,18.90
2022-09-15T13:04:45.370Z,18.90
2022-09-15T13:07:18.872Z,18.80
2022-09-15T13:10:09.433Z,18.70
2022-09-15T13:12:48.055Z,18.60
2022-09-15T13:15:21.337Z,18.40
2022-09-15T13:17:49.553Z,18.30
2022-09-15T13:20:34.253Z,18.30
2022-09-15T13:23:08.854Z,18.40
2022-09-15T13:25:42.443Z,18.30
2022-09-15T13:28:16.629Z,18.40
2022-09-15T13:30:56.420Z,18.40
2022-09-15T13:40:48.691Z,18.50
2022-09-15T13:43:23.661Z,18.40
2022-09-15T13:46:42.076Z,18.30
2022-09-15T13:49:22.656Z,18.30
2022-09-15T13:52:01.025Z,18.30
2022-09-15T13:54:48.671Z,18.10
2022-09-15T13:57:19.164Z,18.10
2022-09-15T14:00:29.626Z,18.20
2022-09-15T14:03:09.476Z,18.10
2022-09-15T14:05:46.481Z,18.10
2022-09-15T14:08:33.704Z,18.10
2022-09-15T14:11:15.124Z,18.00
2022-09-15T14:14:42.241Z,18.10
2022-09-15T14:16:52.695Z,18.20
2022-09-15T14:19:57.352Z,18.30
2022-09-15T14:22:29.833Z,18.30
2022-09-15T14:25:02.575Z,18.10
2022-09-15T14:27:37.211Z,18.10
2022-09-15T14:30:23.048Z,17.90
2022-09-15T14:33:00.759Z,17.80
2022-09-15T14:35:38.260Z,17.80
2022-09-15T14:38:09.235Z,17.70
2022-09-15T14:40:41.356Z,17.70
2022-09-15T14:43:28.556Z,17.60
2022-09-15T14:46:05.369Z,17.70
2022-09-15T14:48:41.511Z,17.60
2022-09-15T14:51:23.288Z,17.70
2022-09-15T14:53:56.469Z,17.70
2022-09-15T14:56:37.236Z,17.70
2022-09-15T14:59:27.061Z,17.80
2022-09-15T15:02:57.764Z,17.70
2022-09-15T15:05:33.400Z,17.80
2022-09-15T15:08:16.077Z,17.80
2022-09-15T15:10:44.188Z,17.70
2022-09-15T15:13:25.179Z,17.60
2022-09-15T15:16:17.992Z,17.50
2022-09-15T15:18:55.062Z,17.50
2022-09-15T15:21:52.517Z,17.60
2022-09-15T15:24:27.843Z,17.50
2022-09-15T15:27:42.304Z,17.50
2022-09-15T15:30:36.231Z,17.40
2022-09-15T15:33:29.246Z,17.20
2022-09-15T15:36:17.050Z,17.10
2022-09-15T15:39:03.797Z,17.00
2022-09-15T15:45:23.551Z,17.00
2022-09-15T15:48:11.465Z,16.90
2022-09-15T15:51:09.341Z,16.70
2022-09-15T15:53:47.919Z,16.50
2022-09-15T15:56:28.352Z,16.40
2022-09-15T15:59:09.698Z,16.30
2022-09-15T16:02:08.598Z,16.10
2022-09-15T16:04:45.876Z,16.00
2022-09-15T16:10:08.598Z,15.80
2022-09-15T16:12:45.067Z,15.70
2022-09-15T16:15:23.579Z,15.70
2022-09-15T16:17:57.425Z,15.60
2022-09-15T16:20:34.261Z,15.50
2022-09-15T16:23:45.793Z,15.40
2022-09-15T16:26:20.476Z,15.40
2022-09-15T16:29:00.186Z,15.30
2022-09-15T16:31:41.180Z,15.30
2022-09-15T16:34:24.431Z,15.30
2022-09-15T16:37:01.192Z,15.30
2022-09-15T16:39:42.376Z,15.30
2022-09-15T16:42:37.262Z,15.40
2022-09-15T16:45:40.736Z,15.30
2022-09-15T16:48:20.723Z,15.30
2022-09-15T16:51:09.035Z,15.30
2022-09-15T16:53:47.894Z,15.40
2022-09-15T16:56:45.977Z,15.30
2022-09-15T16:59:34.979Z,15.30
2022-09-15T17:02:46.230Z,15.20
2022-09-15T17:08:43.048Z,15.20
2022-09-15T17:11:26.799Z,15.20
2022-09-15T17:14:03.503Z,15.10
2022-09-15T17:16:47.117Z,15.10
2022-09-15T17:19:26.148Z,15.10
2022-09-15T17:21:56.960Z,15.00
2022-09-15T17:24:48.584Z,15.00
2022-09-15T17:27:16.625Z,14.90
2022-09-15T17:29:44.857Z,14.90
2022-09-15T17:32:24.416Z,14.70
2022-09-15T17:34:56.152Z,14.80
2022-09-15T17:37:24.127Z,14.60
2022-09-15T17:39:56.877Z,14.50
2022-09-15T17:42:28.189Z,14.40
2022-09-15T17:44:55.811Z,14.40
2022-09-15T17:47:23.920Z,14.20
2022-09-15T17:49:51.570Z,14.10
2022-09-15T17:52:19.383Z,14.00
2022-09-15T17:54:52.705Z,14.00
2022-09-15T17:57:23.457Z,13.90
2022-09-15T17:59:51.221Z,13.80
2022-09-15T18:02:19.280Z,13.70
2022-09-15T18:04:49.563Z,13.80
2022-09-15T18:07:22.354Z,13.60
2022-09-15T18:09:49.707Z,13.60
2022-09-15T18:12:18.235Z,13.50
2022-09-15T18:14:52.393Z,13.40
2022-09-15T18:17:20.677Z,13.50
2022-09-15T18:19:51.979Z,13.40
2022-09-15T18:22:22.492Z,13.30
2022-09-15T18:24:59.011Z,13.30
2022-09-15T18:27:29.145Z,13.20
2022-09-15T18:29:57.505Z,13.20
2022-09-15T18:32:27.578Z,13.20
2022-09-15T18:34:55.031Z,13.20
2022-09-15T18:37:25.746Z,13.10
2022-09-15T18:39:56.918Z,13.10
2022-09-15T18:42:31.928Z,13.20
2022-09-15T18:45:00.208Z,13.20
2022-09-15T18:47:35.761Z,13.30
2022-09-15T18:50:07.972Z,13.30
2022-09-15T18:52:40.751Z,13.20
2022-09-15T18:55:16.442Z,13.20
2022-09-15T18:57:50.880Z,13.10
2022-09-15T19:00:27.580Z,13.10
2022-09-15T19:03:05.928Z,13.00
2022-09-15T19:05:34.747Z,13.10
2022-09-15T19:08:04.974Z,12.90
2022-09-15T19:10:36.709Z,12.90
2022-09-15T19:13:05.017Z,12.90
2022-09-15T19:15:34.862Z,12.90
2022-09-15T19:18:02.573Z,12.80
2022-09-15T19:20:30.417Z,12.80
2022-09-15T19:23:19.418Z,12.80
2022-09-15T19:25:48.323Z,12.90
2022-09-15T19:28:15.458Z,12.90
2022-09-15T19:30:45.309Z,12.90
2022-09-15T19:33:18.742Z,12.70
2022-09-15T19:35:53.342Z,12.70
2022-09-15T19:38:40.117Z,12.70
2022-09-15T19:41:14.430Z,12.70
2022-09-15T19:43:42.126Z,12.70
2022-09-15T19:46:28.843Z,12.70
2022-09-15T19:48:59.277Z,12.70
2022-09-15T19:51:29.342Z,12.70
2022-09-15T19:53:57.527Z,12.70
2022-09-15T19:56:27.496Z,12.70
2022-09-15T19:58:59.086Z,12.70
2022-09-15T20:01:29.042Z,12.70
2022-09-15T20:06:43.223Z,12.90
2022-09-15T20:09:19.663Z,12.90
2022-09-15T20:11:47.194Z,12.80
2022-09-15T20:14:15.050Z,12.80
2022-09-15T20:16:42.722Z,12.70
2022-09-15T20:19:15.413Z,12.60
2022-09-15T20:21:51.177Z,12.70
2022-09-15T20:24:24.302Z,12.70
2022-09-15T20:26:59.170Z,12.70
2022-09-15T20:29:30.409Z,12.60
2022-09-15T20:32:01.079Z,12.70
2022-09-15T20:34:34.020Z,12.70
2022-09-15T20:37:04.933Z,12.60
2022-09-15T20:39:41.270Z,12.60
2022-09-15T20:42:16.190Z,12.60
2022-09-15T20:44:47.167Z,12.50
2022-09-15T20:47:14.956Z,12.50
2022-09-15T20:49:48.391Z,12.40
2022-09-15T20:52:15.765Z,12.50
2022-09-15T20:54:43.468Z,12.50
2022-09-15T20:57:13.500Z,12.50
2022-09-15T20:59:56.459Z,12.40
2022-09-15T21:02:23.955Z,12.40
2022-09-15T21:04:59.621Z,12.30
2022-09-15T21:07:27.469Z,12.30
2022-09-15T21:09:54.854Z,12.20
2022-09-15T21:12:25.528Z,12.20
2022-09-15T21:14:53.300Z,12.10
2022-09-15T21:17:25.771Z,12.00
2022-09-15T21:19:53.699Z,12.00
2022-09-15T21:22:25.144Z,12.00
2022-09-15T21:24:57.408Z,12.00
2022-09-15T21:27:31.400Z,12.00
2022-09-15T21:30:00.838Z,11.90
2022-09-15T21:32:35.323Z,11.90
2022-09-15T21:35:02.609Z,11.80
2022-09-15T21:37:33.308Z,11.90
2022-09-15T21:40:00.642Z,11.90
2022-09-15T21:42:31.335Z,11.80
2022-09-15T21:44:59.155Z,11.80
2022-09-15T21:47:26.254Z,11.80
2022-09-15T21:50:02.662Z,11.80
2022-09-15T21:52:33.696Z,11.70
2022-09-15T21:55:06.918Z,11.80
2022-09-15T21:57:33.993Z,11.80
2022-09-15T22:00:03.518Z,11.90
2022-09-15T22:02:34.111Z,11.90
2022-09-15T22:05:02.820Z,11.90
2022-09-15T22:07:31.081Z,11.90
2022-09-15T22:09:58.931Z,11.80
2022-09-15T22:12:26.369Z,11.70
2022-09-15T22:14:53.757Z,11.60
2022-09-15T22:17:23.344Z,11.50
2022-09-15T22:19:51.033Z,11.60
2022-09-15T22:22:18.722Z,11.50
2022-09-15T22:24:49.652Z,11.30
2022-09-15T22:27:19.818Z,11.30
2022-09-15T22:29:46.800Z,11.40
2022-09-15T22:32:17.138Z,11.30
2022-09-15T22:34:57.361Z,11.20
2022-09-15T22:37:27.768Z,11.20
2022-09-15T22:39:59.436Z,11.40
2022-09-15T22:42:30.412Z,11.30
2022-09-15T22:45:00.539Z,11.20
2022-09-15T22:47:28.240Z,11.30
2022-09-15T22:49:55.831Z,11.20
2022-09-15T22:52:26.676Z,11.20
2022-09-15T22:54:58.303Z,11.10
2022-09-15T22:57:25.796Z,11.10
2022-09-15T22:59:59.395Z,11.10
2022-09-15T23:02:27.701Z,11.20
2022-09-15T23:04:58.082Z,11.20
2022-09-15T23:07:31.800Z,11.00
2022-09-15T23:10:05.445Z,11.10
2022-09-15T23:12:40.370Z,11.10
2022-09-15T23:15:16.262Z,11.10
2022-09-15T23:17:47.311Z,11.00
2022-09-15T23:20:31.884Z,11.10
2022-09-15T23:23:13.587Z,11.00
2022-09-15T23:25:48.296Z,10.80
2022-09-15T23:28:24.156Z,10.80
2022-09-15T23:30:56.282Z,10.90
2022-09-15T23:33:25.387Z,10.90
2022-09-15T23:36:07.230Z,10.90
2022-09-15T23:38:37.163Z,11.00
2022-09-15T23:41:08.225Z,11.10
2022-09-15T23:43:39.195Z,11.30
2022-09-15T23:46:11.242Z,11.30
2022-09-15T23:48:41.178Z,11.50
2022-09-15T23:51:11.852Z,11.50
2022-09-15T23:53:39.073Z,11.50
2022-09-15T23:56:09.193Z,11.60
2022-09-15T23:58:42.906Z,11.60
